createdAt,value
2017-12-26T00:01:43.754Z,2.57
2017-12-26T00:04:12.030Z,3.00
2017-12-26T00:06:40.245Z,3.00
2017-12-26T00:09:07.735Z,3.07
2017-12-26T00:11:35.245Z,2.73
2017-12-26T00:14:03.516Z,2.63
2017-12-26T00:16:30.993Z,3.50
2017-12-26T00:18:58.554Z,2.50
2017-12-26T00:21:26.071Z,3.13
2017-12-26T00:23:53.535Z,3.00
2017-12-26T00:26:21.104Z,2.00
2017-12-26T00:28:48.852Z,2.90
2017-12-26T00:31:17.052Z,3.10
2017-12-26T00:33:44.750Z,2.97
2017-12-26T00:36:12.971Z,2.93
2017-12-26T00:38:40.439Z,2.67
2017-12-26T00:41:07.962Z,3.00
2017-12-26T00:43:36.176Z,2.00
2017-12-26T00:46:03.677Z,2.50
2017-12-26T00:48:31.168Z,2.63
2017-12-26T00:50:58.655Z,2.40
2017-12-26T00:53:26.137Z,2.80
2017-12-26T00:55:53.637Z,3.10
2017-12-26T00:58:21.252Z,2.37
2017-12-26T01:00:48.673Z,2.70
2017-12-26T01:03:17.024Z,3.10
2017-12-26T01:05:44.484Z,3.50
2017-12-26T01:08:11.933Z,2.40
2017-12-26T01:10:39.472Z,2.97
2017-12-26T01:13:07.697Z,2.97
2017-12-26T01:15:35.216Z,3.03
2017-12-26T01:18:03.815Z,3.70
2017-12-26T01:20:32.049Z,2.57
2017-12-26T01:22:59.536Z,3.17
2017-12-26T01:25:28.054Z,2.80
2017-12-26T01:27:55.532Z,2.90
2017-12-26T01:30:23.040Z,2.43
2017-12-26T01:32:51.254Z,3.07
2017-12-26T01:35:18.729Z,2.97
2017-12-26T01:37:46.255Z,2.70
2017-12-26T01:40:13.752Z,2.53
2017-12-26T01:42:41.203Z,2.50
2017-12-26T01:45:08.715Z,2.87
2017-12-26T01:47:36.167Z,2.97
2017-12-26T01:50:03.654Z,2.40
2017-12-26T01:52:31.123Z,3.10
2017-12-26T01:54:59.361Z,2.60
2017-12-26T01:57:26.804Z,3.40
2017-12-26T01:59:54.304Z,2.93
2017-12-26T02:02:21.866Z,3.47
2017-12-26T02:04:49.319Z,3.00
2017-12-26T02:07:16.816Z,3.33
2017-12-26T02:09:44.261Z,2.87
2017-12-26T02:12:12.530Z,3.43
2017-12-26T02:14:40.006Z,3.00
2017-12-26T02:17:07.454Z,4.37
2017-12-26T02:19:34.933Z,4.60
2017-12-26T02:22:03.191Z,4.43
2017-12-26T02:24:30.655Z,3.83
2017-12-26T02:26:58.105Z,4.40
2017-12-26T02:29:25.644Z,4.90
2017-12-26T02:31:53.819Z,3.90
2017-12-26T02:34:21.304Z,4.10
2017-12-26T02:36:48.816Z,4.20
2017-12-26T02:39:17.031Z,4.27
2017-12-26T02:41:44.521Z,4.30
2017-12-26T02:44:11.979Z,3.87
2017-12-26T02:46:39.445Z,4.50
2017-12-26T02:49:06.863Z,3.87
2017-12-26T02:51:34.355Z,4.13
2017-12-26T02:54:01.801Z,4.57
2017-12-26T02:56:30.024Z,4.00
2017-12-26T02:58:57.478Z,4.50
2017-12-26T03:01:25.908Z,5.13
2017-12-26T03:03:53.395Z,4.50
2017-12-26T03:06:21.029Z,4.00
2017-12-26T03:08:48.486Z,4.30
2017-12-26T03:11:16.755Z,4.43
2017-12-26T03:13:45.015Z,3.50
2017-12-26T03:16:12.605Z,3.60
2017-12-26T03:18:40.832Z,4.20
2017-12-26T03:21:08.298Z,4.33
2017-12-26T03:23:35.742Z,5.50
2017-12-26T03:26:03.221Z,3.83
2017-12-26T03:28:30.749Z,4.50
2017-12-26T03:30:58.218Z,5.03
2017-12-26T03:33:26.409Z,4.30
2017-12-26T03:35:53.943Z,4.90
2017-12-26T03:38:22.168Z,4.07
2017-12-26T03:40:49.664Z,4.83
2017-12-26T03:43:17.126Z,4.43
2017-12-26T03:45:44.623Z,5.67
2017-12-26T03:48:12.896Z,4.13
2017-12-26T03:50:41.141Z,4.87
2017-12-26T03:53:08.649Z,5.70
2017-12-26T03:55:36.114Z,5.43
2017-12-26T03:58:03.613Z,5.47
2017-12-26T04:00:31.099Z,5.07
2017-12-26T04:02:58.567Z,4.67
2017-12-26T04:05:26.071Z,5.73
2017-12-26T04:07:53.585Z,4.50
2017-12-26T04:10:21.052Z,4.70
2017-12-26T04:12:48.596Z,4.90
2017-12-26T04:15:16.109Z,5.00
2017-12-26T04:17:44.324Z,4.50
2017-12-26T04:20:11.814Z,5.13
2017-12-26T04:22:39.292Z,4.80
2017-12-26T04:25:06.817Z,4.60
2017-12-26T04:27:34.243Z,5.27
2017-12-26T04:30:01.735Z,5.43
2017-12-26T04:32:29.192Z,5.70
2017-12-26T04:34:56.675Z,5.00
2017-12-26T04:37:24.153Z,4.63
2017-12-26T04:39:51.651Z,4.93
2017-12-26T04:42:19.907Z,4.97
2017-12-26T04:44:47.361Z,5.30
2017-12-26T04:47:14.848Z,4.30
2017-12-26T04:49:43.121Z,4.60
2017-12-26T04:52:10.796Z,5.43
2017-12-26T04:54:39.045Z,3.13
2017-12-26T04:57:06.527Z,5.07
2017-12-26T04:59:34.777Z,5.73
2017-12-26T05:02:02.225Z,5.20
2017-12-26T05:04:29.728Z,5.27
2017-12-26T05:06:57.332Z,5.47
2017-12-26T05:09:24.793Z,4.93
2017-12-26T05:11:52.255Z,5.20
2017-12-26T05:14:19.752Z,4.50
2017-12-26T05:16:50.253Z,4.50
2017-12-26T05:23:45.987Z,4.30
2017-12-26T05:26:13.511Z,6.00
2017-12-26T05:28:40.958Z,4.53
2017-12-26T05:31:08.550Z,4.73
2017-12-26T05:33:36.058Z,4.73
2017-12-26T05:36:04.317Z,5.20
2017-12-26T05:38:31.772Z,6.63
2017-12-26T05:40:59.284Z,4.93
2017-12-26T05:43:26.762Z,4.20
2017-12-26T05:45:54.253Z,4.33
2017-12-26T05:48:21.735Z,4.43
2017-12-26T05:50:49.194Z,4.17
2017-12-26T05:53:16.680Z,3.80
2017-12-26T05:55:44.923Z,4.07
2017-12-26T05:58:12.418Z,4.50
2017-12-26T06:00:40.685Z,5.00
2017-12-26T06:03:08.147Z,3.77
2017-12-26T06:05:35.624Z,3.80
2017-12-26T06:08:03.876Z,4.20
2017-12-26T06:10:31.333Z,4.07
2017-12-26T06:12:58.947Z,4.40
2017-12-26T06:15:26.414Z,4.63
2017-12-26T06:17:53.871Z,5.00
2017-12-26T06:20:21.378Z,4.30
2017-12-26T06:22:48.843Z,4.13
2017-12-26T06:25:16.298Z,4.80
2017-12-26T06:27:43.801Z,4.43
2017-12-26T06:30:12.043Z,4.50
2017-12-26T06:32:39.581Z,4.30
2017-12-26T06:35:06.997Z,4.27
2017-12-26T06:37:34.604Z,4.67
2017-12-26T06:40:02.111Z,4.23
2017-12-26T06:42:29.609Z,4.50
2017-12-26T06:44:57.844Z,5.07
2017-12-26T06:47:25.328Z,4.20
2017-12-26T06:49:52.985Z,4.70
2017-12-26T06:52:20.451Z,5.00
2017-12-26T06:54:47.872Z,4.30
2017-12-26T06:57:15.327Z,4.10
2017-12-26T06:59:42.851Z,4.73
2017-12-26T07:02:10.318Z,4.20
2017-12-26T07:04:38.589Z,4.67
2017-12-26T07:07:06.252Z,4.30
2017-12-26T07:09:33.714Z,4.30
2017-12-26T07:12:01.165Z,4.53
2017-12-26T07:14:28.732Z,3.67
2017-12-26T07:16:56.213Z,4.23
2017-12-26T07:19:23.686Z,4.17
2017-12-26T07:21:51.931Z,4.30
2017-12-26T07:24:19.385Z,4.20
2017-12-26T07:26:46.911Z,4.30
2017-12-26T07:29:15.179Z,4.60
2017-12-26T07:31:43.465Z,4.23
2017-12-26T07:34:11.678Z,3.50
2017-12-26T07:36:39.206Z,3.60
2017-12-26T07:39:07.455Z,3.27
2017-12-26T07:41:34.900Z,3.30
2017-12-26T07:44:02.480Z,4.17
2017-12-26T07:46:30.657Z,3.03
2017-12-26T07:48:58.179Z,3.60
2017-12-26T07:51:25.667Z,3.70
2017-12-26T07:53:53.145Z,2.80
2017-12-26T07:56:20.624Z,2.90
2017-12-26T07:58:48.145Z,3.40
2017-12-26T08:01:15.666Z,3.70
2017-12-26T08:03:43.179Z,3.43
2017-12-26T08:06:10.610Z,3.20
2017-12-26T08:08:38.118Z,3.57
2017-12-26T08:11:05.557Z,3.43
2017-12-26T08:13:33.048Z,2.97
2017-12-26T08:16:00.525Z,3.97
2017-12-26T08:18:28.006Z,3.53
2017-12-26T08:20:56.232Z,3.03
2017-12-26T08:23:23.728Z,2.73
2017-12-26T08:25:51.267Z,1.70
2017-12-26T08:28:18.724Z,1.80
2017-12-26T08:30:46.219Z,1.50
2017-12-26T08:33:13.702Z,1.73
2017-12-26T08:35:41.976Z,1.70
2017-12-26T08:38:10.227Z,1.00
2017-12-26T08:40:37.709Z,1.20
2017-12-26T08:43:05.198Z,0.90
2017-12-26T08:45:32.669Z,0.93
2017-12-26T08:48:00.120Z,0.73
2017-12-26T08:50:27.624Z,1.47
2017-12-26T08:52:55.061Z,1.27
2017-12-26T08:55:22.560Z,1.30
2017-12-26T08:57:50.041Z,1.30
2017-12-26T09:00:17.581Z,1.20
2017-12-26T09:02:45.062Z,1.70
2017-12-26T09:05:12.527Z,1.20
2017-12-26T09:07:40.091Z,1.60
2017-12-26T09:10:07.549Z,1.30
2017-12-26T09:12:35.040Z,1.50
2017-12-26T09:15:03.367Z,1.17
2017-12-26T09:17:31.060Z,0.87
2017-12-26T09:19:59.304Z,0.93
2017-12-26T09:22:26.857Z,1.13
2017-12-26T09:24:54.314Z,1.10
2017-12-26T09:27:21.831Z,1.00
2017-12-26T09:29:49.343Z,0.97
2017-12-26T09:32:16.859Z,1.20
2017-12-26T09:34:44.362Z,1.00
2017-12-26T09:37:11.802Z,1.10
2017-12-26T09:39:40.019Z,0.83
2017-12-26T09:42:07.559Z,0.83
2017-12-26T09:44:35.801Z,1.10
2017-12-26T09:47:03.364Z,0.80
2017-12-26T09:49:30.887Z,0.93
2017-12-26T09:51:58.380Z,1.00
2017-12-26T09:54:26.011Z,1.13
2017-12-26T09:56:53.472Z,1.00
2017-12-26T09:59:20.953Z,0.90
2017-12-26T10:01:48.424Z,0.87
2017-12-26T10:04:15.921Z,1.17
2017-12-26T10:06:43.385Z,0.70
2017-12-26T10:09:11.006Z,0.83
2017-12-26T10:11:38.467Z,1.77
2017-12-26T10:14:06.019Z,0.90
2017-12-26T10:16:33.519Z,0.80
2017-12-26T10:19:01.022Z,0.93
2017-12-26T10:21:29.326Z,0.77
2017-12-26T10:23:56.879Z,0.97
2017-12-26T10:26:24.341Z,0.90
2017-12-26T10:28:52.597Z,0.60
2017-12-26T10:31:20.041Z,0.70
2017-12-26T10:33:47.523Z,0.97
2017-12-26T10:36:15.078Z,0.80
2017-12-26T10:38:42.542Z,0.63
2017-12-26T10:41:09.968Z,0.77
2017-12-26T10:43:37.470Z,0.80
2017-12-26T10:46:04.970Z,0.77
2017-12-26T10:48:32.517Z,0.80
2017-12-26T10:50:59.978Z,0.80
2017-12-26T10:53:28.221Z,1.00
2017-12-26T10:55:55.905Z,0.83
2017-12-26T10:58:24.087Z,1.00
2017-12-26T11:00:51.566Z,1.13
2017-12-26T11:03:19.832Z,0.87
2017-12-26T11:05:48.132Z,0.73
2017-12-26T11:08:15.650Z,0.70
2017-12-26T11:10:43.132Z,0.83
2017-12-26T11:13:12.153Z,0.70
2017-12-26T11:15:39.608Z,0.77
2017-12-26T11:18:07.081Z,0.90
2017-12-26T11:20:35.338Z,1.13
2017-12-26T11:23:02.915Z,1.10
2017-12-26T11:25:31.198Z,0.80
2017-12-26T11:27:58.665Z,1.00
2017-12-26T11:30:26.936Z,0.53
2017-12-26T11:32:54.438Z,0.77
2017-12-26T11:35:21.948Z,1.10
2017-12-26T11:37:49.460Z,0.60
2017-12-26T11:40:16.926Z,0.70
2017-12-26T11:42:44.456Z,0.90
2017-12-26T11:45:11.917Z,0.80
2017-12-26T11:47:40.176Z,0.80
2017-12-26T11:50:07.661Z,0.77
2017-12-26T11:52:35.143Z,0.70
2017-12-26T11:55:03.414Z,0.80
2017-12-26T11:57:30.977Z,0.93
2017-12-26T11:59:58.378Z,1.63
2017-12-26T12:02:25.837Z,0.83
2017-12-26T12:04:53.403Z,0.80
2017-12-26T12:07:21.635Z,1.13
2017-12-26T12:09:49.883Z,1.10
2017-12-26T12:12:17.435Z,1.00
2017-12-26T12:14:45.700Z,1.00
2017-12-26T12:17:13.161Z,1.00
2017-12-26T12:19:40.667Z,1.00
2017-12-26T12:22:08.129Z,1.00
2017-12-26T12:24:35.711Z,1.10
2017-12-26T12:27:03.321Z,1.20
2017-12-26T12:29:30.890Z,1.03
2017-12-26T12:31:58.306Z,0.77
2017-12-26T12:34:26.584Z,1.00
2017-12-26T12:36:54.036Z,1.30
2017-12-26T12:39:21.521Z,1.10
2017-12-26T12:41:49.765Z,1.17
2017-12-26T12:44:17.282Z,1.33
2017-12-26T12:46:44.918Z,1.57
2017-12-26T12:49:12.370Z,2.10
2017-12-26T12:51:39.856Z,1.30
2017-12-26T12:54:09.785Z,1.43
2017-12-26T12:56:37.420Z,0.97
2017-12-26T12:59:05.112Z,1.00
2017-12-26T13:01:33.344Z,1.40
2017-12-26T13:04:00.858Z,1.20
2017-12-26T13:06:28.307Z,1.30
2017-12-26T13:08:56.579Z,1.60
2017-12-26T13:11:24.831Z,1.40
2017-12-26T13:13:52.278Z,0.97
2017-12-26T13:16:19.796Z,0.90
2017-12-26T13:18:47.223Z,1.70
2017-12-26T13:21:14.726Z,1.50
2017-12-26T13:23:43.376Z,1.70
2017-12-26T13:26:10.911Z,1.53
2017-12-26T13:28:38.461Z,1.40
2017-12-26T13:31:05.902Z,1.50
2017-12-26T13:33:34.128Z,1.47
2017-12-26T13:36:01.614Z,1.60
2017-12-26T13:38:29.098Z,1.50
2017-12-26T13:40:57.412Z,1.47
2017-12-26T13:43:24.886Z,1.47
2017-12-26T13:45:52.398Z,1.30
2017-12-26T13:48:19.882Z,1.70
2017-12-26T13:50:47.409Z,1.70
2017-12-26T13:53:15.130Z,1.60
2017-12-26T13:55:42.520Z,1.87
2017-12-26T13:58:10.043Z,1.80
2017-12-26T14:00:37.486Z,1.53
2017-12-26T14:03:04.951Z,2.17
2017-12-26T14:05:33.193Z,2.27
2017-12-26T14:08:00.700Z,1.13
2017-12-26T14:10:28.937Z,2.10
2017-12-26T14:12:56.420Z,1.27
2017-12-26T14:15:23.927Z,1.43
2017-12-26T14:17:51.435Z,1.30
2017-12-26T14:20:18.894Z,1.10
2017-12-26T14:22:46.388Z,1.37
2017-12-26T14:25:14.666Z,1.53
2017-12-26T14:27:42.818Z,1.10
2017-12-26T14:30:10.311Z,1.33
2017-12-26T14:32:38.564Z,1.10
2017-12-26T14:35:06.844Z,1.37
2017-12-26T14:37:34.493Z,1.50
2017-12-26T14:40:01.957Z,1.50
2017-12-26T14:42:29.468Z,1.10
2017-12-26T14:44:57.725Z,1.63
2017-12-26T14:47:25.428Z,1.30
2017-12-26T14:49:53.652Z,1.20
2017-12-26T14:52:21.118Z,1.10
2017-12-26T14:54:48.628Z,1.80
2017-12-26T14:57:16.173Z,1.47
2017-12-26T14:59:43.690Z,1.17
2017-12-26T15:02:11.183Z,1.30
2017-12-26T15:04:38.609Z,1.30
2017-12-26T15:07:06.076Z,1.10
2017-12-26T15:09:33.575Z,1.20
2017-12-26T15:12:01.102Z,1.50
2017-12-26T15:14:28.601Z,1.60
2017-12-26T15:16:56.050Z,1.30
2017-12-26T15:19:23.607Z,1.90
2017-12-26T15:21:51.805Z,1.50
2017-12-26T15:24:19.336Z,3.80
2017-12-26T15:26:47.539Z,1.33
2017-12-26T15:29:15.018Z,1.50
2017-12-26T15:31:42.516Z,1.97
2017-12-26T15:34:10.763Z,1.93
2017-12-26T15:36:38.280Z,1.80
2017-12-26T15:39:05.722Z,1.60
2017-12-26T15:41:33.298Z,2.00
2017-12-26T15:44:00.752Z,1.90
2017-12-26T15:46:28.244Z,2.10
2017-12-26T15:48:55.732Z,1.57
2017-12-26T15:51:23.240Z,1.47
2017-12-26T15:53:50.711Z,1.30
2017-12-26T15:56:18.188Z,2.40
2017-12-26T15:58:45.682Z,1.90
2017-12-26T16:01:13.178Z,1.60
2017-12-26T16:03:41.427Z,1.20
2017-12-26T16:06:08.934Z,1.13
2017-12-26T16:08:36.383Z,1.53
2017-12-26T16:11:03.898Z,1.37
2017-12-26T16:13:31.402Z,2.07
2017-12-26T16:15:59.673Z,1.40
2017-12-26T16:18:27.148Z,1.63
2017-12-26T16:20:55.433Z,1.30
2017-12-26T16:23:22.930Z,1.57
2017-12-26T16:25:50.393Z,1.20
2017-12-26T16:28:17.913Z,1.90
2017-12-26T16:30:45.388Z,2.10
2017-12-26T16:33:12.883Z,1.50
2017-12-26T16:35:40.385Z,1.50
2017-12-26T16:38:07.820Z,1.90
2017-12-26T16:40:35.533Z,2.50
2017-12-26T16:43:03.750Z,2.03
2017-12-26T16:45:31.321Z,1.70
2017-12-26T16:47:58.762Z,1.70
2017-12-26T16:50:26.288Z,2.10
2017-12-26T16:52:55.264Z,2.10
2017-12-26T16:55:22.770Z,2.10
2017-12-26T16:57:51.069Z,2.00
2017-12-26T17:00:18.542Z,2.13
2017-12-26T17:02:46.078Z,2.00
2017-12-26T17:05:13.551Z,1.50
2017-12-26T17:07:41.289Z,1.80
2017-12-26T17:10:09.389Z,1.60
2017-12-26T17:12:37.628Z,1.60
2017-12-26T17:15:05.139Z,2.20
2017-12-26T17:17:32.659Z,3.00
2017-12-26T17:20:00.110Z,1.60
2017-12-26T17:22:27.611Z,1.80
2017-12-26T17:24:55.166Z,1.43
2017-12-26T17:27:22.642Z,1.70
2017-12-26T17:29:50.904Z,1.03
2017-12-26T17:32:19.203Z,1.23
2017-12-26T17:34:47.962Z,1.50
2017-12-26T17:37:15.450Z,1.60
2017-12-26T17:39:43.733Z,1.67
2017-12-26T17:42:11.997Z,1.33
2017-12-26T17:44:39.466Z,1.10
2017-12-26T17:47:07.764Z,1.27
2017-12-26T17:49:36.012Z,1.70
2017-12-26T17:52:03.516Z,1.23
2017-12-26T17:54:31.017Z,1.23
2017-12-26T17:56:58.532Z,1.27
2017-12-26T17:59:26.005Z,1.17
2017-12-26T18:01:53.447Z,1.27
2017-12-26T18:04:21.684Z,1.33
2017-12-26T18:06:49.241Z,0.80
2017-12-26T18:09:16.801Z,1.43
2017-12-26T18:11:44.275Z,0.90
2017-12-26T18:14:11.745Z,1.00
2017-12-26T18:16:39.270Z,1.10
2017-12-26T18:19:07.140Z,1.20
2017-12-26T18:21:34.700Z,1.00
2017-12-26T18:24:02.962Z,1.03
2017-12-26T18:26:31.204Z,1.17
2017-12-26T18:31:26.175Z,1.30
2017-12-26T18:33:54.406Z,2.23
2017-12-26T18:36:21.894Z,1.80
2017-12-26T18:38:50.204Z,1.40
2017-12-26T18:41:17.663Z,1.40
2017-12-26T18:43:45.880Z,1.10
2017-12-26T18:46:13.357Z,1.80
2017-12-26T18:48:40.895Z,1.87
2017-12-26T18:51:08.361Z,1.43
2017-12-26T18:53:35.845Z,1.40
2017-12-26T18:56:03.411Z,1.60
2017-12-26T18:58:30.897Z,1.50
2017-12-26T19:00:58.389Z,1.70
2017-12-26T19:03:25.890Z,1.87
2017-12-26T19:05:53.339Z,1.20
2017-12-26T19:08:20.988Z,1.53
2017-12-26T19:10:48.660Z,1.40
2017-12-26T19:13:17.801Z,1.40
2017-12-26T19:15:46.046Z,1.70
2017-12-26T19:18:14.233Z,1.73
2017-12-26T19:20:41.748Z,1.40
2017-12-26T19:23:09.253Z,1.70
2017-12-26T19:25:36.696Z,1.00
2017-12-26T19:28:04.152Z,1.63
2017-12-26T19:30:32.459Z,1.47
2017-12-26T19:32:59.942Z,1.03
2017-12-26T19:35:27.409Z,1.70
2017-12-26T19:37:55.629Z,1.03
2017-12-26T19:40:23.077Z,1.07
2017-12-26T19:42:50.591Z,1.97
2017-12-26T19:45:18.151Z,1.13
2017-12-26T19:47:45.581Z,1.33
2017-12-26T19:50:13.100Z,1.20
2017-12-26T19:52:40.579Z,1.30
2017-12-26T19:55:08.350Z,1.07
2017-12-26T19:57:35.766Z,0.93
2017-12-26T20:00:03.308Z,1.17
2017-12-26T20:02:30.771Z,1.13
2017-12-26T20:04:59.024Z,1.37
2017-12-26T20:07:26.528Z,0.97
2017-12-26T20:09:54.763Z,1.40
2017-12-26T20:12:22.245Z,1.23
2017-12-26T20:14:49.809Z,1.13
2017-12-26T20:17:17.979Z,1.00
2017-12-26T20:19:45.451Z,1.53
2017-12-26T20:22:13.058Z,1.23
2017-12-26T20:24:40.511Z,1.00
2017-12-26T20:27:08.024Z,1.23
2017-12-26T20:29:35.473Z,1.20
2017-12-26T20:32:02.947Z,1.00
2017-12-26T20:34:30.421Z,1.13
2017-12-26T20:36:57.934Z,1.00
2017-12-26T20:39:25.411Z,1.20
2017-12-26T20:41:53.016Z,1.33
2017-12-26T20:44:20.421Z,1.30
2017-12-26T20:46:48.009Z,6.53
2017-12-26T20:49:15.441Z,3.37
2017-12-26T20:51:42.897Z,1.10
2017-12-26T20:54:10.460Z,1.13
2017-12-26T20:56:37.928Z,1.07
2017-12-26T20:59:05.358Z,1.10
2017-12-26T21:01:32.878Z,0.97
2017-12-26T21:04:01.183Z,1.50
2017-12-26T21:06:28.616Z,1.50
2017-12-26T21:08:56.121Z,1.30
2017-12-26T21:11:24.385Z,1.40
2017-12-26T21:13:51.897Z,1.17
2017-12-26T21:16:19.386Z,1.33
2017-12-26T21:18:46.866Z,1.30
2017-12-26T21:21:14.419Z,0.90
2017-12-26T21:23:41.873Z,1.37
2017-12-26T21:26:09.333Z,1.10
2017-12-26T21:28:37.628Z,1.07
2017-12-26T21:31:05.079Z,1.10
2017-12-26T21:33:33.355Z,0.97
2017-12-26T21:36:01.745Z,1.30
2017-12-26T21:38:29.984Z,1.30
2017-12-26T21:40:57.595Z,1.20
2017-12-26T21:43:25.822Z,1.13
2017-12-26T21:45:53.321Z,1.10
2017-12-26T21:48:20.845Z,1.40
2017-12-26T21:50:48.319Z,1.63
2017-12-26T21:53:15.798Z,1.10
2017-12-26T21:55:43.305Z,0.90
2017-12-26T21:58:10.759Z,1.20
2017-12-26T22:00:38.990Z,1.30
2017-12-26T22:03:06.474Z,1.40
2017-12-26T22:05:33.938Z,1.10
2017-12-26T22:08:01.461Z,0.80
2017-12-26T22:10:28.962Z,0.97
2017-12-26T22:12:56.427Z,1.50
2017-12-26T22:15:23.912Z,1.27
2017-12-26T22:17:52.158Z,1.20
2017-12-26T22:20:19.640Z,1.10
2017-12-26T22:22:47.895Z,1.10
2017-12-26T22:25:15.373Z,0.90
2017-12-26T22:27:42.885Z,1.03
2017-12-26T22:30:10.449Z,1.37
2017-12-26T22:32:37.954Z,1.00
2017-12-26T22:35:05.428Z,0.80
2017-12-26T22:37:32.891Z,1.17
2017-12-26T22:40:00.410Z,1.83
2017-12-26T22:42:27.874Z,1.63
2017-12-26T22:44:55.376Z,1.50
2017-12-26T22:47:22.815Z,1.10
2017-12-26T22:49:50.270Z,0.90
2017-12-26T22:52:17.770Z,1.20
2017-12-26T22:54:45.240Z,0.90
2017-12-26T22:57:13.495Z,1.20
2017-12-26T22:59:42.162Z,1.00
2017-12-26T23:02:12.813Z,1.23
2017-12-26T23:04:40.364Z,1.20
2017-12-26T23:07:07.837Z,0.87
2017-12-26T23:09:35.343Z,1.50
2017-12-26T23:12:02.800Z,0.80
2017-12-26T23:14:31.067Z,1.27
2017-12-26T23:16:59.093Z,1.10
2017-12-26T23:19:26.588Z,1.33
2017-12-26T23:21:54.107Z,1.13
2017-12-26T23:24:21.635Z,0.90
2017-12-26T23:26:49.198Z,1.40
2017-12-26T23:29:16.667Z,0.80
2017-12-26T23:31:44.888Z,1.30
2017-12-26T23:34:12.430Z,1.10
2017-12-26T23:36:40.669Z,1.07
2017-12-26T23:39:08.164Z,0.97
2017-12-26T23:41:36.396Z,1.07
2017-12-26T23:44:03.917Z,0.70
2017-12-26T23:46:31.410Z,1.20
2017-12-26T23:48:59.210Z,0.90
2017-12-26T23:51:27.390Z,0.67
2017-12-26T23:53:54.851Z,1.13
2017-12-26T23:56:22.526Z,1.10
2017-12-26T23:58:50.016Z,0.90
